Time;durP1;ratioP1;P1;durP2;ratioP2;P2;SDS_P1;SDS_P2;PMS_P1;PMS_P2;Temp;Humidity;BMP_temperature;BMP_pressure;BME280_temperature;BME280_humidity;BME280_pressure;Samples;Min_cycle;Max_cycle;Signal;HPM_P1;HPM_P2
2022/11/13 00:00:57;;;;;;;12.45;6.85;;;8.50;99.90;;;;;;5090067;28;20048;-82
2022/11/13 00:03:23;;;;;;;11.18;6.10;;;8.40;99.90;;;;;;5071704;28;20036;-82
2022/11/13 00:06:00;;;;;;;11.25;6.03;;;8.40;99.90;;;;;;5074683;28;20063;-82
2022/11/13 00:08:25;;;;;;;12.00;6.50;;;8.40;99.90;;;;;;5074785;28;20036;-82
2022/11/13 00:10:51;;;;;;;14.55;6.80;;;8.30;99.90;;;;;;5091833;28;20036;-82
2022/11/13 00:13:17;;;;;;;11.75;7.28;;;8.30;99.90;;;;;;5091100;28;20437;-82
2022/11/13 00:15:42;;;;;;;11.80;6.88;;;8.20;99.90;;;;;;5074512;28;20480;-82
2022/11/13 00:18:08;;;;;;;11.77;6.32;;;8.20;99.90;;;;;;5091503;28;20081;-82
2022/11/13 00:20:35;;;;;;;13.05;6.20;;;8.20;99.90;;;;;;5091652;28;20040;-82
2022/11/13 00:23:00;;;;;;;11.77;6.47;;;8.20;99.90;;;;;;5091162;28;20108;-82
2022/11/13 00:25:26;;;;;;;10.65;5.72;;;8.10;99.90;;;;;;5074221;28;20516;-82
2022/11/13 00:27:51;;;;;;;10.25;5.82;;;8.10;99.90;;;;;;5092239;28;20027;-82
2022/11/13 00:30:17;;;;;;;10.65;6.03;;;8.10;99.90;;;;;;5091446;28;20393;-82
2022/11/13 00:32:42;;;;;;;10.80;6.53;;;8.00;99.90;;;;;;5090954;28;20489;-82
2022/11/13 00:35:08;;;;;;;13.80;6.82;;;8.00;99.90;;;;;;5074274;28;20397;-82
2022/11/13 00:37:33;;;;;;;14.02;6.55;;;8.00;99.90;;;;;;5090282;28;20525;-82
2022/11/13 00:39:59;;;;;;;14.07;7.15;;;8.00;99.90;;;;;;5091158;28;20040;-82
2022/11/13 00:42:24;;;;;;;10.93;5.65;;;8.00;99.90;;;;;;5090488;28;20432;-81
2022/11/13 00:44:50;;;;;;;11.60;6.55;;;8.00;99.90;;;;;;5090827;28;20040;-82
2022/11/13 00:47:15;;;;;;;13.05;7.22;;;8.00;99.90;;;;;;5091059;28;20047;-82
2022/11/13 00:49:41;;;;;;;13.18;7.20;;;8.00;99.90;;;;;;5091074;28;20035;-82
2022/11/13 00:52:06;;;;;;;13.35;7.32;;;8.00;99.90;;;;;;5073887;28;20591;-82
2022/11/13 00:54:32;;;;;;;12.68;7.20;;;8.00;99.90;;;;;;5090614;28;20573;-82
2022/11/13 00:56:57;;;;;;;11.73;6.93;;;8.10;99.90;;;;;;5090587;28;20436;-81
2022/11/13 00:59:23;;;;;;;13.65;7.25;;;8.10;99.90;;;;;;5090617;28;20040;-82
2022/11/13 01:01:49;;;;;;;12.43;6.65;;;8.10;99.90;;;;;;5090605;28;20048;-82
2022/11/13 01:04:14;;;;;;;12.23;6.25;;;8.10;99.90;;;;;;5090211;28;20044;-82
2022/11/13 01:06:40;;;;;;;13.48;7.18;;;8.10;99.90;;;;;;5090466;28;20032;-82
2022/11/13 01:09:05;;;;;;;14.55;8.07;;;8.10;99.90;;;;;;5073701;28;20032;-82
2022/11/13 01:11:31;;;;;;;13.73;8.07;;;8.10;99.90;;;;;;5073439;28;20058;-82
2022/11/13 01:13:56;;;;;;;16.13;9.55;;;8.10;99.90;;;;;;5090057;28;20066;-82
2022/11/13 01:16:25;;;;;;;15.35;8.02;;;8.10;99.90;;;;;;5090700;28;20038;-82
2022/11/13 01:18:53;;;;;;;11.90;7.22;;;8.20;99.90;;;;;;5073459;28;20081;-82
2022/11/13 01:21:22;;;;;;;15.88;8.18;;;8.20;99.90;;;;;;5090387;28;20043;-82
2022/11/13 01:23:47;;;;;;;13.93;7.55;;;8.20;99.90;;;;;;5089844;28;20036;-82
2022/11/13 01:26:16;;;;;;;12.77;7.32;;;8.20;99.90;;;;;;5073369;28;20043;-82
2022/11/13 01:28:43;;;;;;;14.63;7.78;;;8.20;99.90;;;;;;5090468;28;20460;-82
2022/11/13 01:31:15;;;;;;;12.85;7.20;;;8.20;99.90;;;;;;5073407;28;20036;-82
2022/11/13 01:33:42;;;;;;;15.65;7.47;;;8.20;99.90;;;;;;5073080;28;20046;-82
2022/11/13 01:36:13;;;;;;;15.77;7.82;;;8.30;99.90;;;;;;5073594;28;20050;-82
2022/11/13 01:38:39;;;;;;;11.98;7.22;;;8.20;99.90;;;;;;5073581;28;20051;-82
2022/11/13 01:41:05;;;;;;;13.70;7.60;;;8.30;99.90;;;;;;5090092;28;20040;-82
2022/11/13 01:43:36;;;;;;;15.57;8.13;;;8.30;99.90;;;;;;5089702;28;20044;-82
2022/11/13 01:46:11;;;;;;;15.07;7.88;;;8.30;99.90;;;;;;5090159;28;20046;-82
2022/11/13 01:48:41;;;;;;;14.57;7.35;;;8.30;99.90;;;;;;5091356;28;20146;-82
2022/11/13 01:51:23;;;;;;;14.35;8.10;;;8.30;99.90;;;;;;5077347;28;20068;-82
2022/11/13 01:53:48;;;;;;;16.00;8.38;;;8.20;99.90;;;;;;5093770;28;20508;-82
2022/11/13 01:56:15;;;;;;;14.82;8.35;;;8.20;99.90;;;;;;5093996;28;20058;-82
2022/11/13 01:58:44;;;;;;;15.30;8.65;;;8.30;99.90;;;;;;5094270;28;20051;-82
2022/11/13 02:01:09;;;;;;;14.02;8.05;;;8.20;99.90;;;;;;5093754;28;20093;-82
2022/11/13 02:03:35;;;;;;;15.50;8.52;;;8.20;99.90;;;;;;5093790;28;20040;-82
2022/11/13 02:06:01;;;;;;;15.05;9.20;;;8.30;99.90;;;;;;5077317;28;20043;-82
2022/11/13 02:08:27;;;;;;;16.17;9.38;;;8.30;99.90;;;;;;5093906;28;20043;-82
2022/11/13 02:10:52;;;;;;;14.43;8.85;;;8.30;99.90;;;;;;5076946;28;20036;-82
2022/11/13 02:13:20;;;;;;;14.52;8.90;;;8.30;99.90;;;;;;5093315;28;20082;-82
2022/11/13 02:15:46;;;;;;;13.38;8.88;;;8.30;99.90;;;;;;5076812;28;20036;-82
2022/11/13 02:18:13;;;;;;;14.13;8.57;;;8.30;99.90;;;;;;5093471;28;20504;-82
2022/11/13 02:20:39;;;;;;;15.40;9.23;;;8.30;99.90;;;;;;5093954;28;20424;-82
2022/11/13 02:23:23;;;;;;;16.63;9.15;;;8.30;99.90;;;;;;5093287;28;20529;-82
2022/11/13 02:25:52;;;;;;;15.35;8.55;;;8.30;99.90;;;;;;5076580;28;20036;-82
2022/11/13 02:28:17;;;;;;;15.68;8.80;;;8.20;99.90;;;;;;5093520;28;20122;-82
2022/11/13 02:30:43;;;;;;;12.93;8.30;;;8.20;99.90;;;;;;5076336;28;20474;-82
2022/11/13 02:33:25;;;;;;;17.40;9.50;;;8.30;99.90;;;;;;5076431;28;20050;-82
2022/11/13 02:35:51;;;;;;;15.10;8.55;;;8.30;99.90;;;;;;5093334;28;20509;-82
2022/11/13 02:38:16;;;;;;;13.15;8.30;;;8.30;99.90;;;;;;5076419;28;20040;-82
2022/11/13 02:40:42;;;;;;;13.68;8.07;;;8.20;99.90;;;;;;5076344;28;20405;-82
2022/11/13 02:43:07;;;;;;;13.98;8.27;;;8.20;99.90;;;;;;5092876;28;20032;-82
2022/11/13 02:45:33;;;;;;;14.00;9.38;;;8.20;99.90;;;;;;5075993;28;20059;-82
2022/11/13 02:47:59;;;;;;;15.57;9.02;;;8.20;99.90;;;;;;5093217;28;20122;-82
2022/11/13 02:50:25;;;;;;;14.32;9.27;;;8.20;99.90;;;;;;5093090;28;20093;-82
2022/11/13 02:52:50;;;;;;;14.93;8.95;;;8.20;99.90;;;;;;5092617;28;20036;-82
2022/11/13 02:55:16;;;;;;;16.15;8.48;;;8.20;99.90;;;;;;5092824;28;20076;-81
2022/11/13 02:57:42;;;;;;;15.43;8.25;;;8.10;99.90;;;;;;5092820;28;20409;-82
2022/11/13 03:00:08;;;;;;;17.08;8.38;;;8.10;99.90;;;;;;5075388;28;20114;-82
2022/11/13 03:02:33;;;;;;;16.80;9.07;;;8.10;99.90;;;;;;5075823;28;20054;-82
2022/11/13 03:04:59;;;;;;;16.02;9.55;;;8.10;99.90;;;;;;5092774;28;20032;-82
2022/11/13 03:07:24;;;;;;;15.57;9.40;;;8.00;99.90;;;;;;5092604;28;20560;-82
2022/11/13 03:09:50;;;;;;;13.50;8.30;;;8.00;99.90;;;;;;5075830;28;20127;-82
2022/11/13 03:12:15;;;;;;;13.93;8.15;;;8.10;99.90;;;;;;5092253;28;20124;-82
2022/11/13 03:14:41;;;;;;;15.32;8.73;;;8.10;99.90;;;;;;5092445;28;20071;-82
2022/11/13 03:17:06;;;;;;;14.23;8.38;;;8.00;99.90;;;;;;5075653;28;20059;-82
2022/11/13 03:19:32;;;;;;;15.13;9.18;;;8.00;99.90;;;;;;5092724;28;20036;-82
2022/11/13 03:21:58;;;;;;;15.88;9.60;;;8.00;99.90;;;;;;5074442;28;20044;-82
2022/11/13 03:24:23;;;;;;;16.83;9.25;;;8.00;99.90;;;;;;5075117;28;20040;-82
2022/11/13 03:26:49;;;;;;;15.13;9.20;;;8.00;99.90;;;;;;5075619;28;20040;-82
2022/11/13 03:29:14;;;;;;;13.52;8.25;;;8.00;99.90;;;;;;5092109;28;20149;-82
2022/11/13 03:31:40;;;;;;;15.02;8.43;;;8.00;99.90;;;;;;5092259;28;20124;-82
2022/11/13 03:34:05;;;;;;;16.70;9.65;;;7.90;99.90;;;;;;5091913;28;20046;-82
2022/11/13 03:36:31;;;;;;;17.27;9.10;;;7.90;99.90;;;;;;5075315;28;20123;-82
2022/11/13 03:38:57;;;;;;;14.23;8.95;;;7.90;99.90;;;;;;5092231;28;20075;-82
2022/11/13 03:41:23;;;;;;;16.85;9.63;;;7.90;99.90;;;;;;5091952;28;20040;-82
2022/11/13 03:43:48;;;;;;;13.57;7.53;;;7.90;99.90;;;;;;5074649;28;20059;-84
2022/11/13 03:46:14;;;;;;;13.93;8.05;;;7.90;99.90;;;;;;5075126;28;20059;-83
2022/11/13 03:48:40;;;;;;;19.00;9.57;;;7.80;99.90;;;;;;5075125;28;20043;-83
2022/11/13 03:51:06;;;;;;;15.70;9.25;;;7.80;99.90;;;;;;5075314;28;20032;-84
2022/11/13 03:53:31;;;;;;;15.60;9.38;;;7.80;99.90;;;;;;5091688;28;20045;-83
2022/11/13 03:55:57;;;;;;;13.75;8.80;;;7.80;99.90;;;;;;5092038;28;20516;-83
2022/11/13 03:58:23;;;;;;;14.93;8.95;;;7.80;99.90;;;;;;5091866;28;20378;-83
2022/11/13 04:00:49;;;;;;;18.30;9.13;;;7.80;99.90;;;;;;5075097;28;20119;-83
2022/11/13 04:03:15;;;;;;;17.60;10.10;;;7.80;99.90;;;;;;5091577;28;20435;-83
2022/11/13 04:05:42;;;;;;;14.50;9.27;;;7.80;99.90;;;;;;5091498;28;20501;-84
2022/11/13 04:08:08;;;;;;;14.95;9.15;;;7.80;99.90;;;;;;5091508;28;20043;-84
2022/11/13 04:10:33;;;;;;;18.45;9.23;;;7.80;99.90;;;;;;5091638;28;20036;-84
2022/11/13 04:12:59;;;;;;;16.20;9.18;;;7.80;99.90;;;;;;5091277;28;20384;-84
2022/11/13 04:15:24;;;;;;;14.95;8.88;;;7.80;99.90;;;;;;5091653;28;20507;-84
2022/11/13 04:17:50;;;;;;;16.67;9.13;;;7.80;99.90;;;;;;5074808;28;20392;-84
2022/11/13 04:20:16;;;;;;;16.05;8.27;;;7.70;99.90;;;;;;5085099;28;20521;-84
2022/11/13 04:22:41;;;;;;;16.05;8.75;;;7.70;99.90;;;;;;5084934;28;20047;-84
2022/11/13 04:25:08;;;;;;;17.98;9.27;;;7.70;99.90;;;;;;5059798;28;20051;-84
2022/11/13 04:27:34;;;;;;;16.42;8.75;;;7.70;99.90;;;;;;5073743;28;20035;-84
2022/11/13 04:29:59;;;;;;;17.60;8.80;;;7.70;99.90;;;;;;5074420;28;20036;-84
2022/11/13 04:32:25;;;;;;;15.40;8.63;;;7.60;99.90;;;;;;5091126;28;20122;-84
2022/11/13 04:34:51;;;;;;;14.10;8.32;;;7.60;99.90;;;;;;5089856;28;20501;-84
2022/11/13 04:37:16;;;;;;;14.43;7.82;;;7.60;99.90;;;;;;5073613;28;20046;-84
2022/11/13 04:39:42;;;;;;;16.73;8.55;;;7.60;99.90;;;;;;5090771;28;20094;-84
2022/11/13 04:44:53;;;;;;;14.60;8.68;;;7.60;99.90;;;;;;5090826;28;20127;-84
2022/11/13 04:47:18;;;;;;;14.75;7.88;;;7.50;99.90;;;;;;5073861;28;20071;-84
2022/11/13 04:49:44;;;;;;;15.60;8.85;;;7.50;99.90;;;;;;5090869;28;20404;-84
2022/11/13 04:52:09;;;;;;;17.50;9.52;;;7.50;99.90;;;;;;5073553;28;20043;-84
2022/11/13 04:54:35;;;;;;;15.60;8.52;;;7.50;99.90;;;;;;5090791;28;20040;-83
2022/11/13 04:57:01;;;;;;;15.07;9.27;;;7.50;99.90;;;;;;5090857;28;20036;-84
2022/11/13 04:59:26;;;;;;;16.30;9.07;;;7.50;99.90;;;;;;5090940;28;20498;-84
2022/11/13 05:01:54;;;;;;;12.82;7.82;;;7.40;99.90;;;;;;5091979;28;20409;-84
2022/11/13 05:04:20;;;;;;;17.48;8.48;;;7.40;99.90;;;;;;5090233;28;20040;-84
2022/11/13 05:06:45;;;;;;;14.65;9.20;;;7.40;99.90;;;;;;5090460;28;20077;-84
2022/11/13 05:09:11;;;;;;;14.77;8.68;;;7.40;99.90;;;;;;5073446;28;20089;-84
2022/11/13 05:11:36;;;;;;;14.55;8.73;;;7.40;99.90;;;;;;5073634;28;20169;-84
2022/11/13 05:14:04;;;;;;;15.85;9.13;;;7.40;99.90;;;;;;5073571;28;20046;-84
2022/11/13 05:16:29;;;;;;;16.58;9.20;;;7.30;99.90;;;;;;5073627;28;20036;-84
2022/11/13 05:18:57;;;;;;;14.13;8.32;;;7.40;99.90;;;;;;5073789;28;20096;-83
2022/11/13 05:21:23;;;;;;;17.35;10.07;;;7.40;99.90;;;;;;5073611;28;20040;-84
2022/11/13 05:23:48;;;;;;;17.38;9.23;;;7.30;99.90;;;;;;5072424;28;20097;-84
2022/11/13 05:26:14;;;;;;;13.82;8.32;;;7.30;99.90;;;;;;5073527;28;20036;-84
2022/11/13 05:28:40;;;;;;;14.10;8.52;;;7.30;99.90;;;;;;5073732;28;20114;-84
2022/11/13 05:31:09;;;;;;;16.63;9.18;;;7.30;99.90;;;;;;5090591;28;20048;-84
2022/11/13 05:33:35;;;;;;;15.27;9.27;;;7.30;99.90;;;;;;5073434;28;20036;-84
2022/11/13 05:36:04;;;;;;;14.38;8.50;;;7.30;99.90;;;;;;5073326;28;20035;-84
2022/11/13 05:38:30;;;;;;;14.30;8.63;;;7.20;99.90;;;;;;5073629;28;20066;-84
2022/11/13 05:41:11;;;;;;;16.40;8.95;;;7.30;99.90;;;;;;5090162;28;20036;-84
2022/11/13 05:43:38;;;;;;;14.82;8.60;;;7.20;99.90;;;;;;5073218;28;20040;-84
2022/11/13 05:46:24;;;;;;;15.00;8.07;;;7.20;99.90;;;;;;5073520;28;20119;-84
2022/11/13 05:48:55;;;;;;;15.10;8.18;;;7.20;99.90;;;;;;5090084;28;20074;-83
2022/11/13 05:51:23;;;;;;;13.40;7.97;;;7.10;99.90;;;;;;5089915;28;20036;-84
2022/11/13 05:53:49;;;;;;;13.32;8.05;;;7.10;99.90;;;;;;5089867;28;20069;-84
2022/11/13 05:56:35;;;;;;;14.13;7.53;;;7.00;99.90;;;;;;5073514;28;20505;-84
2022/11/13 05:59:02;;;;;;;15.27;8.35;;;7.00;99.90;;;;;;5090009;28;20118;-84
2022/11/13 06:01:36;;;;;;;14.23;7.50;;;6.90;99.90;;;;;;5090208;28;20086;-84
2022/11/13 06:04:03;;;;;;;13.15;7.03;;;6.90;99.90;;;;;;5072663;28;20524;-84
2022/11/13 06:06:30;;;;;;;14.75;7.43;;;6.80;99.90;;;;;;5073093;28;20592;-84
2022/11/13 06:08:57;;;;;;;16.83;8.57;;;6.70;99.90;;;;;;5090135;28;20054;-84
2022/11/13 06:11:25;;;;;;;17.08;8.48;;;6.70;99.90;;;;;;5089780;28;20117;-84
2022/11/13 06:13:51;;;;;;;15.77;8.80;;;6.70;99.90;;;;;;5089449;28;20043;-84
2022/11/13 06:16:20;;;;;;;15.73;9.05;;;6.70;99.90;;;;;;5090151;28;20052;-84
2022/11/13 06:18:46;;;;;;;13.80;7.50;;;6.70;99.90;;;;;;5089686;28;20504;-84
2022/11/13 06:21:18;;;;;;;13.32;7.43;;;6.70;99.90;;;;;;5072920;28;20047;-84
2022/11/13 06:23:43;;;;;;;14.63;7.55;;;6.60;99.90;;;;;;5068468;28;20051;-84
2022/11/13 06:26:16;;;;;;;13.93;7.57;;;6.60;99.90;;;;;;5071999;28;20055;-84
2022/11/13 06:28:41;;;;;;;13.75;7.47;;;6.60;99.90;;;;;;5072147;28;20032;-84
2022/11/13 06:31:12;;;;;;;14.40;8.18;;;6.60;99.90;;;;;;5088672;28;20047;-84
2022/11/13 06:33:40;;;;;;;14.25;8.20;;;6.60;99.90;;;;;;5088408;28;20075;-84
2022/11/13 06:36:12;;;;;;;13.65;8.35;;;6.60;99.90;;;;;;5073701;28;20550;-84
2022/11/13 06:38:39;;;;;;;14.50;8.43;;;6.60;99.90;;;;;;5075922;28;20040;-84
2022/11/13 06:41:05;;;;;;;14.00;7.43;;;6.60;99.90;;;;;;5092674;28;20130;-84
2022/11/13 06:43:31;;;;;;;15.60;8.35;;;6.60;99.90;;;;;;5092395;28;20039;-84
2022/11/13 06:45:57;;;;;;;16.00;8.85;;;6.60;99.90;;;;;;5092615;28;20036;-84
2022/11/13 06:48:23;;;;;;;14.45;8.25;;;6.60;99.90;;;;;;5092989;28;20040;-84
2022/11/13 06:50:50;;;;;;;16.63;8.55;;;6.60;99.90;;;;;;5092872;28;20039;-84
2022/11/13 06:53:16;;;;;;;15.25;8.55;;;6.60;99.90;;;;;;5075110;28;20066;-84
2022/11/13 06:55:44;;;;;;;15.18;8.18;;;6.60;99.90;;;;;;5075261;28;20051;-84
2022/11/13 06:58:09;;;;;;;12.75;8.00;;;6.60;99.90;;;;;;5091865;28;20454;-84
2022/11/13 07:00:35;;;;;;;12.80;7.38;;;6.60;99.90;;;;;;5075572;28;20044;-84
2022/11/13 07:03:00;;;;;;;13.18;8.05;;;6.60;99.90;;;;;;5091978;28;20040;-84
2022/11/13 07:05:26;;;;;;;13.57;7.72;;;6.60;99.90;;;;;;5092068;28;20100;-84
2022/11/13 07:07:52;;;;;;;13.23;7.55;;;6.60;99.90;;;;;;5075291;28;20058;-83
2022/11/13 07:10:17;;;;;;;13.45;7.95;;;6.60;99.90;;;;;;5092401;28;20036;-84
2022/11/13 07:12:43;;;;;;;13.52;8.20;;;6.60;99.90;;;;;;5075281;28;20481;-84
2022/11/13 07:15:09;;;;;;;13.95;7.22;;;6.60;99.90;;;;;;5091985;28;20044;-84
2022/11/13 07:17:34;;;;;;;15.38;9.32;;;6.60;99.90;;;;;;5075038;28;20044;-84
2022/11/13 07:20:00;;;;;;;16.65;8.13;;;6.60;99.90;;;;;;5092148;28;20053;-84
2022/11/13 07:22:28;;;;;;;18.58;8.05;;;6.60;99.90;;;;;;5074670;28;20439;-83
2022/11/13 07:24:53;;;;;;;12.85;7.60;;;6.60;99.90;;;;;;5091748;28;20037;-84
2022/11/13 07:27:19;;;;;;;12.27;7.47;;;6.60;99.90;;;;;;5091787;28;20043;-83
2022/11/13 07:29:44;;;;;;;13.00;7.38;;;6.60;99.90;;;;;;5075113;28;20032;-84
2022/11/13 07:32:10;;;;;;;13.13;7.47;;;6.60;99.90;;;;;;5074814;28;20435;-83
2022/11/13 07:34:35;;;;;;;12.90;7.10;;;6.60;99.90;;;;;;5091947;28;20536;-84
2022/11/13 07:37:01;;;;;;;14.60;7.55;;;6.60;99.90;;;;;;5074654;28;20481;-84
2022/11/13 07:39:27;;;;;;;16.35;8.90;;;6.60;99.90;;;;;;5074710;28;20036;-84
2022/11/13 07:41:52;;;;;;;14.50;7.65;;;6.70;99.90;;;;;;5091929;28;20570;-84
2022/11/13 07:44:18;;;;;;;13.00;7.38;;;6.70;99.90;;;;;;5074283;28;20521;-84
2022/11/13 07:46:44;;;;;;;12.85;7.18;;;6.60;99.90;;;;;;5091411;28;20032;-83
2022/11/13 07:49:09;;;;;;;11.77;6.45;;;6.60;99.90;;;;;;5074753;28;20043;-84
2022/11/13 07:51:34;;;;;;;14.27;7.75;;;6.50;99.90;;;;;;5091364;28;20039;-84
2022/11/13 07:54:00;;;;;;;11.35;6.43;;;6.50;99.90;;;;;;5090967;28;20040;-84
2022/11/13 07:56:26;;;;;;;11.48;6.38;;;6.50;99.90;;;;;;5074222;28;20051;-83
2022/11/13 07:58:51;;;;;;;11.85;6.65;;;6.40;99.90;;;;;;5074426;28;20040;-84
2022/11/13 08:01:17;;;;;;;11.77;6.18;;;6.40;99.90;;;;;;5074106;28;20048;-84
2022/11/13 08:03:42;;;;;;;11.48;6.70;;;6.40;99.90;;;;;;5071323;28;20055;-84
2022/11/13 08:06:08;;;;;;;12.13;6.10;;;6.30;99.90;;;;;;5090940;28;20110;-84
2022/11/13 08:08:34;;;;;;;12.15;7.00;;;6.30;99.90;;;;;;5074263;28;20063;-84
2022/11/13 08:11:07;;;;;;;13.00;6.40;;;6.30;99.90;;;;;;5090923;28;20035;-83
2022/11/13 08:13:34;;;;;;;12.10;6.53;;;6.40;99.90;;;;;;5090743;28;20093;-83
2022/11/13 08:16:01;;;;;;;12.75;7.30;;;6.40;99.90;;;;;;5090687;28;20040;-84
2022/11/13 08:18:28;;;;;;;14.02;7.82;;;6.40;99.90;;;;;;5090678;28;20044;-84
2022/11/13 08:20:54;;;;;;;13.00;7.32;;;6.50;99.90;;;;;;5090731;28;20505;-84
2022/11/13 08:23:20;;;;;;;13.32;8.05;;;6.60;99.90;;;;;;5073389;28;20043;-84
2022/11/13 08:25:46;;;;;;;13.07;8.32;;;6.70;99.90;;;;;;5073718;28;20062;-84
2022/11/13 08:28:12;;;;;;;13.25;7.40;;;6.80;99.90;;;;;;5090779;28;20058;-84
2022/11/13 08:30:37;;;;;;;13.55;8.35;;;6.80;99.90;;;;;;5090817;28;20032;-83
2022/11/13 08:33:03;;;;;;;12.73;7.38;;;6.90;99.90;;;;;;5090207;28;20040;-83
2022/11/13 08:35:29;;;;;;;13.60;8.07;;;7.00;99.90;;;;;;5090505;28;20086;-83
2022/11/13 08:38:01;;;;;;;12.38;7.43;;;7.10;99.90;;;;;;5090400;28;20080;-84
2022/11/13 08:40:27;;;;;;;14.10;7.47;;;7.10;99.90;;;;;;5090513;28;20040;-83
2022/11/13 08:42:57;;;;;;;14.20;7.90;;;7.20;99.90;;;;;;5090114;28;20298;-84
2022/11/13 08:45:23;;;;;;;13.60;8.15;;;7.20;99.90;;;;;;5089924;28;20044;-84
2022/11/13 08:47:49;;;;;;;12.98;7.93;;;7.30;99.90;;;;;;5073168;28;20447;-84
2022/11/13 08:50:14;;;;;;;13.25;7.75;;;7.40;99.90;;;;;;5088806;28;20051;-83
2022/11/13 08:52:40;;;;;;;13.55;7.05;;;7.40;99.90;;;;;;5089841;28;20028;-84
2022/11/13 08:55:05;;;;;;;15.38;8.45;;;7.50;99.90;;;;;;5090073;28;20043;-84
2022/11/13 08:57:31;;;;;;;13.25;7.57;;;7.50;99.90;;;;;;5072662;28;20040;-83
2022/11/13 08:59:56;;;;;;;13.90;8.10;;;7.60;99.90;;;;;;5089056;28;20044;-84
2022/11/13 09:02:22;;;;;;;13.82;7.55;;;7.70;99.90;;;;;;5089639;28;20047;-84
2022/11/13 09:04:48;;;;;;;13.23;6.68;;;7.80;99.90;;;;;;5090064;28;20152;-84
2022/11/13 09:07:13;;;;;;;13.20;8.25;;;7.90;99.90;;;;;;5089901;28;20104;-84
2022/11/13 09:09:39;;;;;;;12.85;6.72;;;7.90;99.90;;;;;;5073085;28;20036;-84
2022/11/13 09:12:05;;;;;;;13.30;7.30;;;8.00;99.90;;;;;;5073115;28;20044;-84
2022/11/13 09:14:30;;;;;;;12.52;7.57;;;8.20;99.90;;;;;;5073517;28;20499;-84
2022/11/13 09:16:56;;;;;;;13.40;7.97;;;8.20;99.90;;;;;;5089542;28;20052;-84
2022/11/13 09:19:22;;;;;;;13.93;8.00;;;8.40;99.90;;;;;;5089901;28;20043;-84
2022/11/13 09:21:47;;;;;;;13.85;7.70;;;8.40;99.90;;;;;;5088984;28;20062;-84
2022/11/13 09:24:13;;;;;;;11.18;6.53;;;8.50;99.90;;;;;;5072485;28;20048;-84
2022/11/13 09:26:38;;;;;;;14.00;7.35;;;8.60;99.90;;;;;;5090639;28;20036;-84
2022/11/13 09:29:04;;;;;;;12.60;7.75;;;8.70;99.90;;;;;;5090080;28;20497;-83
2022/11/13 09:31:30;;;;;;;14.52;7.72;;;8.80;99.90;;;;;;5090047;28;20047;-84
2022/11/13 09:33:55;;;;;;;13.45;7.45;;;8.90;99.90;;;;;;5089822;28;20076;-84
2022/11/13 09:36:21;;;;;;;11.32;6.22;;;8.90;99.90;;;;;;5090222;28;20040;-84
2022/11/13 09:38:47;;;;;;;11.95;7.07;;;9.00;99.90;;;;;;5090260;28;20040;-84
2022/11/13 09:41:18;;;;;;;13.02;7.22;;;9.10;99.90;;;;;;5089830;28;20089;-84
2022/11/13 09:43:51;;;;;;;11.63;7.05;;;9.20;99.90;;;;;;5089896;28;20162;-84
2022/11/13 09:46:34;;;;;;;;;;;9.30;99.90;;;;;;5073791;28;20032;-84
2022/11/13 09:49:23;;;;;;;12.20;7.15;;;9.40;99.90;;;;;;5073338;28;19916;-84
2022/11/13 09:51:54;;;;;;;11.90;6.93;;;9.50;99.90;;;;;;5089212;28;20133;-84
2022/11/13 09:54:20;;;;;;;13.40;7.70;;;9.60;99.90;;;;;;5089974;28;20404;-84
2022/11/13 09:56:50;;;;;;;13.93;7.45;;;9.80;99.90;;;;;;5089912;28;20104;-84
2022/11/13 09:59:25;;;;;;;14.40;7.80;;;9.90;99.90;;;;;;5072967;28;20075;-84
2022/11/13 10:02:10;;;;;;;12.80;7.43;;;10.10;99.90;;;;;;5073315;28;20040;-84
2022/11/13 10:04:57;;;;;;;12.38;7.22;;;10.30;99.90;;;;;;5089888;28;20047;-84
2022/11/13 10:07:26;;;;;;;11.38;7.07;;;10.40;99.90;;;;;;5089769;28;20036;-84
2022/11/13 10:10:20;;;;;;;12.98;7.90;;;10.60;99.90;;;;;;5074653;28;20102;-84
2022/11/13 10:12:47;;;;;;;;;;;10.70;99.90;;;;;;5101104;28;20029;-84
2022/11/13 10:15:15;;;;;;;13.65;7.68;;;10.90;99.90;;;;;;5116274;27;19920;-84
2022/11/13 10:17:49;;;;;;;16.25;9.65;;;11.00;99.90;;;;;;5093385;28;20497;-84
2022/11/13 10:20:30;;;;;;;12.05;7.00;;;11.20;99.90;;;;;;5093903;28;20042;-85
2022/11/13 10:23:13;;;;;;;11.13;6.45;;;11.40;99.90;;;;;;5076501;28;20048;-84
2022/11/13 10:25:41;;;;;;;13.43;7.63;;;11.60;99.90;;;;;;5093360;28;20055;-84
2022/11/13 10:28:24;;;;;;;13.55;8.30;;;11.80;99.90;;;;;;5073046;28;20071;-84
2022/11/13 10:30:50;;;;;;;11.43;7.07;;;12.00;99.90;;;;;;5114782;27;20401;-84
2022/11/13 10:33:22;;;;;;;11.90;6.75;;;12.20;99.90;;;;;;5089487;28;20044;-84
2022/11/13 10:35:58;;;;;;;11.45;6.35;;;12.30;99.90;;;;;;5072713;28;20048;-84
2022/11/13 10:38:32;;;;;;;10.43;6.32;;;12.40;99.90;;;;;;5072415;28;20036;-84
2022/11/13 10:41:11;;;;;;;11.05;8.07;;;12.60;99.90;;;;;;5072696;28;20052;-84
2022/11/13 10:43:56;;;;;;;12.27;7.35;;;12.80;99.90;;;;;;5072034;28;20517;-84
2022/11/13 10:46:24;;;;;;;10.82;5.70;;;12.90;99.90;;;;;;5072678;28;20048;-85
2022/11/13 10:48:51;;;;;;;11.95;8.02;;;13.10;99.90;;;;;;5089289;28;20436;-85
2022/11/13 10:51:29;;;;;;;9.70;7.03;;;13.30;99.90;;;;;;5089362;28;20080;-84
2022/11/13 10:53:57;;;;;;;10.68;5.75;;;13.50;99.90;;;;;;5105831;28;20052;-85
2022/11/13 10:56:25;;;;;;;10.13;5.65;;;13.70;99.90;;;;;;5106370;28;20044;-85
2022/11/13 10:59:15;;;;;;;9.95;6.50;;;13.80;99.90;;;;;;5105948;28;20045;-83
2022/11/13 11:01:42;;;;;;;9.20;5.35;;;13.90;99.90;;;;;;5072177;28;20074;-82
2022/11/13 11:04:18;;;;;;;10.43;6.95;;;14.10;99.90;;;;;;5105840;28;20040;-83
2022/11/13 11:06:44;;;;;;;9.82;6.05;;;14.30;99.90;;;;;;5072225;28;20044;-83
2022/11/13 11:09:19;;;;;;;10.48;7.43;;;14.40;99.90;;;;;;5071979;28;20115;-83
2022/11/13 11:14:58;;;;;;;9.13;5.18;;;14.80;99.90;;;;;;5071758;28;20052;-83
2022/11/13 11:17:33;;;;;;;9.90;6.80;;;14.90;99.90;;;;;;5088158;28;20047;-82
2022/11/13 11:20:06;;;;;;;9.75;6.60;;;15.10;99.90;;;;;;5071841;28;20537;-83
2022/11/13 11:22:36;;;;;;;9.48;6.38;;;15.30;99.90;;;;;;5070850;28;20044;-82
2022/11/13 11:25:18;;;;;;;13.05;5.38;;;15.50;99.90;;;;;;5071768;28;20032;-83
2022/11/13 11:27:51;;;;;;;8.90;5.82;;;15.70;99.90;;;;;;5088220;28;20033;-83
2022/11/13 11:30:21;;;;;;;9.30;5.78;;;15.90;99.80;;;;;;5071943;28;20047;-83
2022/11/13 11:32:55;;;;;;;9.00;6.22;;;16.10;97.90;;;;;;5071418;28;20028;-83
2022/11/13 11:35:25;;;;;;;8.73;5.85;;;16.30;95.30;;;;;;5061125;27;20078;-83
2022/11/13 11:38:00;;;;;;;8.35;5.68;;;16.50;95.40;;;;;;5080579;28;20039;-83
2022/11/13 11:40:41;;;;;;;8.05;5.57;;;16.80;95.70;;;;;;5074953;28;20078;-83
2022/11/13 11:43:28;;;;;;;8.90;5.35;;;16.90;88.40;;;;;;5074813;28;20569;-83
2022/11/13 11:45:53;;;;;;;10.77;5.30;;;17.10;89.10;;;;;;5074646;28;20055;-83
2022/11/13 11:48:26;;;;;;;9.02;5.18;;;17.30;90.20;;;;;;5065508;27;20040;-83
2022/11/13 11:51:13;;;;;;;9.35;5.30;;;17.60;90.90;;;;;;5065982;27;20110;-83
2022/11/13 11:53:57;;;;;;;8.85;5.35;;;17.80;88.90;;;;;;5093305;28;20097;-83
2022/11/13 11:56:34;;;;;;;8.35;5.28;;;18.00;88.10;;;;;;5054526;27;20122;-83
2022/11/13 11:59:16;;;;;;;10.68;5.13;;;18.40;85.60;;;;;;5102439;28;20036;-83
2022/11/13 12:02:15;;;;;;;8.85;5.10;;;18.90;80.40;;;;;;5074165;28;20396;-83
2022/11/13 12:05:00;;;;;;;8.13;4.97;;;19.10;74.90;;;;;;5091202;28;20044;-83
2022/11/13 12:07:36;;;;;;;8.35;4.80;;;19.80;74.10;;;;;;5090674;28;20066;-83
2022/11/13 12:10:18;;;;;;;7.70;4.68;;;20.80;70.80;;;;;;5092172;28;20497;-83
2022/11/13 12:13:01;;;;;;;8.10;4.68;;;21.60;66.20;;;;;;5090752;28;20038;-83
2022/11/13 12:15:47;;;;;;;8.15;4.53;;;22.00;64.00;;;;;;5073978;28;20051;-83
2022/11/13 12:18:25;;;;;;;8.63;4.82;;;22.00;63.60;;;;;;5073834;28;20516;-83
2022/11/13 12:21:07;;;;;;;7.68;4.65;;;21.90;63.20;;;;;;5090954;28;20044;-83
2022/11/13 12:23:52;;;;;;;8.25;4.07;;;22.00;63.40;;;;;;5091787;28;20032;-83
2022/11/13 12:26:29;;;;;;;7.60;4.30;;;22.40;62.40;;;;;;5090926;28;20154;-83
2022/11/13 12:29:39;;;;;;;7.55;4.03;;;22.90;61.10;;;;;;5090454;28;20067;-83
2022/11/13 12:32:23;;;;;;;8.35;4.13;;;23.30;59.00;;;;;;5090388;28;20516;-83
2022/11/13 12:35:03;;;;;;;7.35;3.95;;;23.90;58.50;;;;;;5089872;28;20069;-83
2022/11/13 12:37:48;;;;;;;7.38;4.05;;;24.70;58.50;;;;;;5090847;28;20044;-83
2022/11/13 12:40:27;;;;;;;9.30;5.45;;;25.90;55.90;;;;;;5090527;28;20051;-83
2022/11/13 12:43:25;;;;;;;8.40;4.53;;;27.10;54.40;;;;;;5090546;28;20066;-83
2022/11/13 12:45:52;;;;;;;7.20;4.30;;;28.40;51.50;;;;;;5098830;28;20059;-84
2022/11/13 12:48:17;;;;;;;7.78;4.13;;;29.60;48.80;;;;;;5073303;28;20040;-84
2022/11/13 12:50:54;;;;;;;7.90;3.72;;;30.50;46.00;;;;;;5090595;28;20409;-84
2022/11/13 12:53:30;;;;;;;7.05;3.15;;;31.40;44.90;;;;;;5072535;28;20032;-84
2022/11/13 12:56:02;;;;;;;8.00;4.05;;;32.10;42.00;;;;;;5072801;28;20036;-84
2022/11/13 12:58:32;;;;;;;7.63;4.03;;;32.70;41.10;;;;;;5087620;28;20107;-84
2022/11/13 13:01:06;;;;;;;8.95;4.60;;;33.10;40.20;;;;;;5088265;28;20031;-84